createdAt,value
2023-05-05T00:00:40.729Z,98572.72
2023-05-05T00:03:43.032Z,98568.53
2023-05-05T00:06:44.769Z,98557.31
2023-05-05T00:09:46.412Z,98556.50
2023-05-05T00:12:48.290Z,98554.81
2023-05-05T00:15:50.596Z,98545.28
2023-05-05T00:18:52.209Z,98548.72
2023-05-05T00:21:53.786Z,98541.84
2023-05-05T00:24:55.619Z,98539.19
2023-05-05T00:27:57.164Z,98526.97
2023-05-05T00:30:58.798Z,98533.81
2023-05-05T00:34:00.365Z,98544.31
2023-05-05T00:37:02.462Z,98556.56
2023-05-05T00:40:04.205Z,98555.84
2023-05-05T00:43:05.786Z,98545.38
2023-05-05T00:46:37.849Z,98549.41
2023-05-05T00:49:39.502Z,98558.97
2023-05-05T00:52:41.141Z,98555.41
2023-05-05T00:55:42.705Z,98555.75
2023-05-05T00:58:44.381Z,98554.16
2023-05-05T01:01:46.289Z,98549.81
2023-05-05T01:04:47.989Z,98549.00
2023-05-05T01:08:05.007Z,98529.22
2023-05-05T01:11:21.551Z,98526.63
2023-05-05T01:14:43.267Z,98537.19
2023-05-05T01:18:08.064Z,98537.19
2023-05-05T01:21:23.484Z,98534.56
2023-05-05T01:24:42.147Z,98538.81
2023-05-05T01:28:02.078Z,98545.88
2023-05-05T01:31:18.906Z,98545.06
2023-05-05T01:34:53.675Z,98553.09
2023-05-05T01:38:03.374Z,98549.47
2023-05-05T01:41:12.339Z,98547.72
2023-05-05T01:44:14.803Z,98549.44
2023-05-05T01:47:17.054Z,98548.50
2023-05-05T01:50:18.646Z,98557.22
2023-05-05T01:53:20.454Z,98552.19
2023-05-05T01:56:23.413Z,98546.97
2023-05-05T01:59:25.671Z,98549.63
2023-05-05T02:02:28.383Z,98541.72
2023-05-05T02:05:29.957Z,98545.25
2023-05-05T02:08:31.624Z,98547.00
2023-05-05T02:11:33.214Z,98543.63
2023-05-05T02:14:34.864Z,98552.25
2023-05-05T02:17:36.431Z,98547.00
2023-05-05T02:20:38.790Z,98547.00
2023-05-05T02:23:40.554Z,98554.94
2023-05-05T02:26:42.131Z,98554.22
2023-05-05T02:29:48.397Z,98544.66
2023-05-05T02:32:58.977Z,98542.91
2023-05-05T02:36:05.625Z,98542.19
2023-05-05T02:39:11.197Z,98536.06
2023-05-05T02:42:15.020Z,98531.78
2023-05-05T02:45:17.728Z,98526.53
2023-05-05T02:48:19.362Z,98524.78
2023-05-05T02:51:20.911Z,98529.00
2023-05-05T02:54:22.624Z,98541.06
2023-05-05T02:57:38.021Z,98538.38
2023-05-05T03:00:58.282Z,98546.16
2023-05-05T03:04:13.105Z,98537.44
2023-05-05T03:07:27.624Z,98530.44
2023-05-05T03:10:33.026Z,98539.97
2023-05-05T03:13:37.847Z,98545.28
2023-05-05T03:16:40.856Z,98538.34
2023-05-05T03:19:43.197Z,98547.88
2023-05-05T03:22:44.769Z,98543.53
2023-05-05T03:25:49.416Z,98552.25
2023-05-05T03:28:51.216Z,98550.53
2023-05-05T03:31:52.880Z,98554.88
2023-05-05T03:34:54.472Z,98548.84
2023-05-05T03:37:56.187Z,98542.81
2023-05-05T03:41:01.207Z,98542.81
2023-05-05T03:44:02.770Z,98546.25
2023-05-05T03:47:04.372Z,98543.72
2023-05-05T03:50:07.469Z,98553.25
2023-05-05T03:53:09.213Z,98553.44
2023-05-05T03:56:10.795Z,98551.75
2023-05-05T03:59:12.455Z,98554.28
2023-05-05T04:02:14.849Z,98548.91
2023-05-05T04:05:17.592Z,98555.84
2023-05-05T04:08:21.892Z,98558.47
2023-05-05T04:11:23.450Z,98550.66
2023-05-05T04:14:25.154Z,98542.25
2023-05-05T04:17:26.702Z,98530.88
2023-05-05T04:20:31.316Z,98528.34
2023-05-05T04:23:32.931Z,98537.94
2023-05-05T04:26:34.544Z,98537.19
2023-05-05T04:29:36.212Z,98539.63
2023-05-05T04:32:37.805Z,98537.72
2023-05-05T04:35:39.348Z,98556.72
2023-05-05T04:38:40.914Z,98560.13
2023-05-05T04:41:42.522Z,98564.34
2023-05-05T04:44:44.110Z,98560.72
2023-05-05T04:47:45.735Z,98573.09
2023-05-05T04:50:47.355Z,98566.09
2023-05-05T04:53:48.929Z,98573.03
2023-05-05T04:56:50.602Z,98584.28
2023-05-05T04:59:52.275Z,98581.72
2023-05-05T05:02:53.955Z,98579.78
2023-05-05T05:05:55.569Z,98581.47
2023-05-05T05:08:57.155Z,98591.00
2023-05-05T05:12:04.511Z,98592.63
2023-05-05T05:15:06.765Z,98595.34
2023-05-05T05:18:08.304Z,98602.28
2023-05-05T05:21:10.359Z,98608.31
2023-05-05T05:24:11.956Z,98604.00
2023-05-05T05:27:13.509Z,98607.28
2023-05-05T05:30:15.738Z,98601.91
2023-05-05T05:33:17.413Z,98596.69
2023-05-05T05:36:21.205Z,98588.00
2023-05-05T05:39:23.269Z,98578.28
2023-05-05T05:42:24.680Z,98587.81
2023-05-05T05:45:26.571Z,98583.41
2023-05-05T05:48:29.420Z,98581.72
2023-05-05T05:51:31.582Z,98589.50
2023-05-05T05:54:34.509Z,98587.88
2023-05-05T05:57:36.133Z,98577.84
2023-05-05T06:00:37.677Z,98586.47
2023-05-05T06:03:39.288Z,98593.50
2023-05-05T06:06:41.121Z,98597.81
2023-05-05T06:09:42.684Z,98601.19
2023-05-05T06:12:44.337Z,98606.28
2023-05-05T06:15:46.205Z,98614.03
2023-05-05T06:18:47.957Z,98622.63
2023-05-05T06:21:49.573Z,98632.03
2023-05-05T06:24:51.146Z,98637.41
2023-05-05T06:27:53.105Z,98634.56
2023-05-05T06:30:54.719Z,98629.91
2023-05-05T06:33:56.338Z,98634.16
2023-05-05T06:36:57.882Z,98641.19
2023-05-05T06:39:59.469Z,98645.47
2023-05-05T06:43:01.042Z,98652.38
2023-05-05T06:46:02.865Z,98657.53
2023-05-05T06:49:04.378Z,98659.09
2023-05-05T06:52:08.758Z,98662.88
2023-05-05T06:55:10.380Z,98666.91
2023-05-05T06:58:12.140Z,98676.28
2023-05-05T07:01:13.718Z,98674.47
2023-05-05T07:04:15.376Z,98671.69
2023-05-05T07:07:17.074Z,98672.53
2023-05-05T07:10:18.706Z,98675.03
2023-05-05T07:13:20.397Z,98662.53
2023-05-05T07:16:23.366Z,98664.16
2023-05-05T07:19:25.066Z,98682.53
2023-05-05T07:22:26.692Z,98676.50
2023-05-05T07:25:28.278Z,98681.25
2023-05-05T07:28:29.946Z,98683.53
2023-05-05T07:31:31.761Z,98690.13
2023-05-05T07:34:34.600Z,98688.47
2023-05-05T07:37:36.320Z,98689.38
2023-05-05T07:40:37.953Z,98701.94
2023-05-05T07:43:44.251Z,98709.28
2023-05-05T07:46:46.488Z,98711.53
2023-05-05T07:49:48.168Z,98713.94
2023-05-05T07:52:53.935Z,98712.47
2023-05-05T07:56:03.963Z,98716.38
2023-05-05T07:59:05.655Z,98718.75
2023-05-05T08:02:07.410Z,98719.81
2023-05-05T08:05:09.482Z,98721.88
2023-05-05T08:08:11.419Z,98714.25
2023-05-05T08:11:12.972Z,98711.69
2023-05-05T08:14:15.180Z,98711.63
2023-05-05T08:17:19.665Z,98703.56
2023-05-05T08:20:21.581Z,98709.44
2023-05-05T08:23:23.261Z,98707.91
2023-05-05T08:26:24.885Z,98704.78
2023-05-05T08:29:26.526Z,98701.41
2023-05-05T08:32:29.861Z,98704.88
2023-05-05T08:35:31.570Z,98696.84
2023-05-05T08:38:33.183Z,98682.88
2023-05-05T08:41:34.770Z,98674.91
2023-05-05T08:44:36.971Z,98684.28
2023-05-05T08:47:38.787Z,98683.41
2023-05-05T08:50:40.596Z,98680.84
2023-05-05T08:53:54.240Z,98690.34
2023-05-05T08:56:55.850Z,98685.56
2023-05-05T08:59:57.445Z,98688.13
2023-05-05T09:02:59.639Z,98692.72
2023-05-05T09:06:01.308Z,98696.28
2023-05-05T09:09:03.002Z,98699.88
2023-05-05T09:12:04.997Z,98703.59
2023-05-05T09:15:08.892Z,98690.91
2023-05-05T09:18:13.411Z,98695.84
2023-05-05T09:21:26.008Z,98699.84
2023-05-05T09:24:27.659Z,98705.44
2023-05-05T09:27:29.213Z,98706.97
2023-05-05T09:30:31.483Z,98698.75
2023-05-05T09:33:33.056Z,98688.94
2023-05-05T09:36:45.498Z,98693.38
2023-05-05T09:39:53.767Z,98697.25
2023-05-05T09:43:01.117Z,98701.38
2023-05-05T09:46:07.475Z,98706.41
2023-05-05T09:49:14.347Z,98697.88
2023-05-05T09:52:16.010Z,98697.41
2023-05-05T09:55:18.136Z,98709.31
2023-05-05T09:58:37.907Z,98709.50
2023-05-05T10:01:39.783Z,98712.50
2023-05-05T10:04:44.039Z,98705.41
2023-05-05T10:07:46.537Z,98699.81
2023-05-05T10:10:58.343Z,98705.88
2023-05-05T10:13:59.982Z,98699.28
2023-05-05T10:17:01.760Z,98694.19
2023-05-05T10:20:06.965Z,98690.38
2023-05-05T10:23:08.684Z,98698.13
2023-05-05T10:26:10.643Z,98692.81
2023-05-05T10:29:42.420Z,98692.53
2023-05-05T10:35:53.370Z,98684.63
2023-05-05T10:38:58.011Z,98688.94
2023-05-05T10:42:01.901Z,98684.75
2023-05-05T10:45:03.752Z,98671.91
2023-05-05T10:48:09.735Z,98667.19
2023-05-05T10:51:24.115Z,98659.69
2023-05-05T10:54:38.358Z,98656.03
2023-05-05T10:57:41.781Z,98648.94
2023-05-05T11:00:43.185Z,98639.63
2023-05-05T11:03:44.716Z,98640.53
2023-05-05T11:07:14.684Z,98640.50
2023-05-05T11:10:18.880Z,98626.56
2023-05-05T11:13:21.258Z,98631.44
2023-05-05T11:16:47.901Z,98622.34
2023-05-05T11:19:52.201Z,98613.81
2023-05-05T11:23:02.531Z,98623.16
2023-05-05T11:26:04.285Z,98611.06
2023-05-05T11:29:06.431Z,98612.03
2023-05-05T11:32:12.458Z,98609.34
2023-05-05T11:35:14.801Z,98600.38
2023-05-05T11:38:16.410Z,98607.25
2023-05-05T11:41:33.184Z,98596.03
2023-05-05T11:44:34.850Z,98594.03
2023-05-05T11:47:36.586Z,98595.19
2023-05-05T11:50:38.169Z,98593.38
2023-05-05T11:53:46.274Z,98590.44
2023-05-05T11:56:51.660Z,98584.34
2023-05-05T12:00:01.234Z,98572.47
2023-05-05T12:03:03.232Z,98561.53
2023-05-05T12:06:05.709Z,98562.59
2023-05-05T12:09:11.852Z,98563.88
2023-05-05T12:12:13.505Z,98560.50
2023-05-05T12:15:15.105Z,98556.84
2023-05-05T12:18:20.296Z,98558.56
2023-05-05T12:21:21.932Z,98556.78
2023-05-05T12:24:23.476Z,98553.88
2023-05-05T12:27:26.435Z,98550.91
2023-05-05T12:30:28.382Z,98543.16
2023-05-05T12:33:30.261Z,98543.59
2023-05-05T12:36:33.573Z,98532.25
2023-05-05T12:39:36.557Z,98535.56
2023-05-05T12:42:39.025Z,98528.47
2023-05-05T12:45:40.834Z,98522.53
2023-05-05T12:48:48.183Z,98517.53
2023-05-05T12:51:56.643Z,98526.47
2023-05-05T12:54:59.339Z,98534.66
2023-05-05T12:58:07.034Z,98529.38
2023-05-05T13:01:09.197Z,98524.06
2023-05-05T13:04:14.276Z,98522.88
2023-05-05T13:07:16.125Z,98510.22
2023-05-05T13:10:18.009Z,98507.53
2023-05-05T13:13:21.809Z,98495.31
2023-05-05T13:16:23.490Z,98514.38
2023-05-05T13:19:25.233Z,98507.41
2023-05-05T13:22:26.668Z,98497.25
2023-05-05T13:25:28.218Z,98484.41
2023-05-05T13:28:30.009Z,98476.78
2023-05-05T13:31:31.601Z,98462.66
2023-05-05T13:34:33.283Z,98451.69
2023-05-05T13:37:34.778Z,98446.00
2023-05-05T13:40:36.649Z,98430.00
2023-05-05T13:43:38.274Z,98420.72
2023-05-05T13:46:40.665Z,98414.72
2023-05-05T13:49:42.434Z,98420.84
2023-05-05T13:52:44.056Z,98412.88
2023-05-05T13:55:47.608Z,98407.38
2023-05-05T13:59:07.675Z,98391.13
2023-05-05T14:02:10.183Z,98388.88
2023-05-05T14:15:15.517Z,98284.50
2023-05-05T14:18:17.041Z,98264.44
2023-05-05T14:21:18.639Z,98256.94
2023-05-05T14:24:20.218Z,98259.16
2023-05-05T14:27:21.777Z,98277.09
2023-05-05T14:30:23.412Z,98275.13
2023-05-05T14:33:25.105Z,98287.72
2023-05-05T14:36:26.941Z,98277.97
2023-05-05T14:39:28.594Z,98281.69
2023-05-05T14:42:33.245Z,98276.75
2023-05-05T15:16:03.230Z,98302.94
2023-05-05T15:19:44.489Z,98306.78
2023-05-05T15:48:52.157Z,98333.50
2023-05-05T16:00:03.972Z,98273.19
2023-05-05T16:03:19.266Z,98285.75
2023-05-05T16:07:06.602Z,98293.22
2023-05-05T16:10:19.195Z,98311.91
2023-05-05T16:13:50.646Z,98314.69
2023-05-05T16:17:04.507Z,98318.19
2023-05-05T16:20:23.272Z,98313.44
2023-05-05T16:23:54.082Z,98308.81
2023-05-05T16:27:04.829Z,98312.31
2023-05-05T16:30:10.504Z,98311.00
2023-05-05T16:33:16.677Z,98316.25
2023-05-05T16:36:29.476Z,98310.88
2023-05-05T16:39:47.294Z,98312.94
2023-05-05T16:42:57.067Z,98314.97
2023-05-05T16:46:01.621Z,98307.31
2023-05-05T16:49:05.709Z,98310.19
2023-05-05T16:52:17.388Z,98300.25
2023-05-05T16:55:32.241Z,98293.09
2023-05-05T16:58:48.164Z,98288.25
2023-05-05T17:02:05.197Z,98294.19
2023-05-05T17:05:09.844Z,98307.69
2023-05-05T17:08:22.845Z,98301.88
2023-05-05T17:11:29.037Z,98334.09
2023-05-05T17:14:42.793Z,98332.78
2023-05-05T17:17:52.917Z,98346.66
2023-05-05T17:20:59.012Z,98340.22
2023-05-05T17:24:10.289Z,98341.25
2023-05-05T17:27:18.931Z,98339.81
2023-05-05T17:30:30.332Z,98346.69
2023-05-05T17:33:32.342Z,98344.16
2023-05-05T17:36:42.494Z,98347.88
2023-05-05T17:39:48.053Z,98328.31
2023-05-05T17:43:08.749Z,98328.88
2023-05-05T17:46:22.901Z,98330.53
2023-05-05T17:49:47.982Z,98336.69
2023-05-05T17:52:50.145Z,98336.69
2023-05-05T17:56:09.440Z,98330.28
2023-05-05T17:59:23.774Z,98330.56
2023-05-05T18:02:48.097Z,98339.78
2023-05-05T18:06:20.490Z,98341.13
2023-05-05T18:09:31.177Z,98343.97
2023-05-05T18:13:35.603Z,98350.31
2023-05-05T18:16:32.958Z,98343.53
2023-05-05T18:19:36.754Z,98347.53
2023-05-05T18:22:45.669Z,98347.78
2023-05-05T18:25:52.735Z,98339.97
2023-05-05T18:29:01.391Z,98353.06
2023-05-05T18:32:11.492Z,98351.38
2023-05-05T18:35:13.716Z,98359.47
2023-05-05T18:38:15.514Z,98362.56
2023-05-05T18:41:19.225Z,98359.97
2023-05-05T18:44:22.552Z,98364.94
2023-05-05T18:47:24.356Z,98366.75
2023-05-05T18:50:26.974Z,98377.13
2023-05-05T18:53:33.217Z,98386.06
2023-05-05T18:56:38.950Z,98381.09
2023-05-05T18:59:43.266Z,98386.59
2023-05-05T19:02:45.405Z,98377.44
2023-05-05T19:05:47.507Z,98380.53
2023-05-05T19:08:49.275Z,98384.94
2023-05-05T19:11:53.378Z,98383.81
2023-05-05T19:14:55.316Z,98382.03
2023-05-05T19:17:57.049Z,98386.31
2023-05-05T19:21:00.286Z,98395.59
2023-05-05T19:24:02.006Z,98396.91
2023-05-05T19:27:04.052Z,98394.78
2023-05-05T19:30:05.931Z,98392.16
2023-05-05T19:33:07.799Z,98402.91
2023-05-05T19:36:09.947Z,98400.50
2023-05-05T19:39:13.710Z,98409.75
2023-05-05T19:42:17.234Z,98404.16
2023-05-05T19:45:18.691Z,98406.47
2023-05-05T19:48:20.886Z,98418.78
2023-05-05T19:51:22.702Z,98424.84
2023-05-05T19:54:24.688Z,98428.50
2023-05-05T19:57:26.441Z,98435.34
2023-05-05T20:00:28.144Z,98436.72
2023-05-05T20:03:29.957Z,98444.47
2023-05-05T20:06:32.204Z,98445.38
2023-05-05T20:09:33.811Z,98435.06
2023-05-05T20:12:35.606Z,98435.78
2023-05-05T20:15:37.363Z,98439.09
2023-05-05T20:18:39.086Z,98441.91
2023-05-05T20:21:41.139Z,98454.28
2023-05-05T20:24:42.927Z,98450.94
2023-05-05T20:28:06.393Z,98450.94
2023-05-05T20:48:49.326Z,98443.69
2023-05-05T20:56:13.563Z,98448.66
2023-05-05T20:59:26.977Z,98460.13
2023-05-05T21:02:33.850Z,98448.97
2023-05-05T21:05:37.338Z,98448.75
2023-05-05T21:08:46.356Z,98447.94
2023-05-05T21:11:51.013Z,98446.38
2023-05-05T21:15:01.974Z,98450.50
2023-05-05T21:18:10.432Z,98439.44
2023-05-05T21:21:12.348Z,98446.56
2023-05-05T21:24:16.009Z,98442.06
2023-05-05T21:27:17.886Z,98443.19
2023-05-05T21:30:19.847Z,98445.81
2023-05-05T21:33:23.491Z,98440.44
2023-05-05T21:36:25.317Z,98435.59
2023-05-05T21:39:32.688Z,98435.41
2023-05-05T21:42:34.673Z,98436.16
2023-05-05T21:45:36.469Z,98438.25
2023-05-05T21:48:40.085Z,98433.66
2023-05-05T22:00:40.421Z,98417.63
2023-05-05T22:04:04.779Z,98416.56
2023-05-05T22:07:23.616Z,98411.50
2023-05-05T22:14:07.896Z,98418.31
2023-05-05T22:17:12.100Z,98417.84
2023-05-05T22:20:16.916Z,98423.25
2023-05-05T22:23:29.891Z,98422.19
2023-05-05T22:26:33.944Z,98416.22
2023-05-05T22:29:36.907Z,98418.97
2023-05-05T22:32:38.869Z,98421.78
2023-05-05T22:35:42.153Z,98417.28
2023-05-05T22:38:46.068Z,98423.56
2023-05-05T22:41:50.024Z,98421.22
2023-05-05T22:44:51.723Z,98415.13
2023-05-05T22:47:53.494Z,98411.75
2023-05-05T22:50:55.284Z,98428.31
2023-05-05T22:53:57.885Z,98430.34
2023-05-05T22:56:59.558Z,98428.63
2023-05-05T23:00:01.405Z,98424.03
2023-05-05T23:03:03.014Z,98430.19
2023-05-05T23:06:04.834Z,98440.06
2023-05-05T23:09:07.535Z,98435.56
2023-05-05T23:12:09.153Z,98430.41
2023-05-05T23:15:11.347Z,98424.41
2023-05-05T23:18:13.392Z,98426.38
2023-05-05T23:21:16.076Z,98427.31
2023-05-05T23:24:17.904Z,98422.94
2023-05-05T23:27:22.169Z,98431.63
2023-05-05T23:30:23.828Z,98421.19
2023-05-05T23:33:25.410Z,98421.94
2023-05-05T23:36:29.514Z,98415.75
2023-05-05T23:39:33.724Z,98420.28
2023-05-05T23:42:35.352Z,98423.00
2023-05-05T23:45:37.069Z,98421.34
2023-05-05T23:48:38.665Z,98429.34
2023-05-05T23:51:40.372Z,98438.06
2023-05-05T23:54:42.029Z,98436.34
2023-05-05T23:57:43.600Z,98436.38
